sensor_id;sensor_type;location;lat;lon;timestamp;P1;durP1;ratioP1;P2;durP2;ratioP2
24086;SDS011;22893;50.572;7.234;2022-09-25T00:01:02;7.53;;;2.35;;
24086;SDS011;22893;50.572;7.234;2022-09-25T00:03:31;4.47;;;3.13;;
24086;SDS011;22893;50.572;7.234;2022-09-25T00:06:10;6.10;;;2.37;;
24086;SDS011;22893;50.572;7.234;2022-09-25T00:08:38;3.40;;;2.12;;
24086;SDS011;22893;50.572;7.234;2022-09-25T00:11:08;5.03;;;2.70;;
24086;SDS011;22893;50.572;7.234;2022-09-25T00:13:37;4.75;;;2.60;;
24086;SDS011;22893;50.572;7.234;2022-09-25T00:16:08;6.30;;;2.87;;
24086;SDS011;22893;50.572;7.234;2022-09-25T00:18:37;5.62;;;2.72;;
24086;SDS011;22893;50.572;7.234;2022-09-25T00:21:22;4.28;;;2.55;;
24086;SDS011;22893;50.572;7.234;2022-09-25T00:23:52;5.10;;;2.80;;
24086;SDS011;22893;50.572;7.234;2022-09-25T00:26:20;4.50;;;2.52;;
24086;SDS011;22893;50.572;7.234;2022-09-25T00:28:47;4.78;;;2.62;;
24086;SDS011;22893;50.572;7.234;2022-09-25T00:31:18;7.28;;;3.15;;
24086;SDS011;22893;50.572;7.234;2022-09-25T00:33:55;5.97;;;2.87;;
24086;SDS011;22893;50.572;7.234;2022-09-25T00:36:19;7.90;;;3.00;;
24086;SDS011;22893;50.572;7.234;2022-09-25T00:38:46;5.78;;;3.17;;
24086;SDS011;22893;50.572;7.234;2022-09-25T00:41:16;8.08;;;3.20;;
24086;SDS011;22893;50.572;7.234;2022-09-25T00:46:33;5.17;;;3.45;;
24086;SDS011;22893;50.572;7.234;2022-09-25T00:49:37;3.55;;;2.33;;
24086;SDS011;22893;50.572;7.234;2022-09-25T00:51:49;5.62;;;2.45;;
24086;SDS011;22893;50.572;7.234;2022-09-25T00:54:24;6.78;;;2.25;;
24086;SDS011;22893;50.572;7.234;2022-09-25T00:56:50;5.05;;;2.05;;
24086;SDS011;22893;50.572;7.234;2022-09-25T00:59:22;4.80;;;3.12;;
24086;SDS011;22893;50.572;7.234;2022-09-25T01:01:55;9.65;;;3.17;;
24086;SDS011;22893;50.572;7.234;2022-09-25T01:04:24;6.42;;;3.10;;
24086;SDS011;22893;50.572;7.234;2022-09-25T01:06:55;5.72;;;3.15;;
24086;SDS011;22893;50.572;7.234;2022-09-25T01:09:22;6.72;;;3.12;;
24086;SDS011;22893;50.572;7.234;2022-09-25T01:11:50;3.75;;;2.50;;
24086;SDS011;22893;50.572;7.234;2022-09-25T01:14:19;4.87;;;2.70;;
24086;SDS011;22893;50.572;7.234;2022-09-25T01:28:13;4.97;;;2.50;;
24086;SDS011;22893;50.572;7.234;2022-09-25T01:30:51;5.65;;;2.55;;
24086;SDS011;22893;50.572;7.234;2022-09-25T01:33:22;5.12;;;2.85;;
24086;SDS011;22893;50.572;7.234;2022-09-25T01:38:43;4.00;;;2.37;;
24086;SDS011;22893;50.572;7.234;2022-09-25T01:41:23;4.95;;;2.40;;
24086;SDS011;22893;50.572;7.234;2022-09-25T01:43:59;5.42;;;3.45;;
24086;SDS011;22893;50.572;7.234;2022-09-25T01:46:46;5.47;;;3.02;;
24086;SDS011;22893;50.572;7.234;2022-09-25T01:49:25;5.67;;;2.98;;
24086;SDS011;22893;50.572;7.234;2022-09-25T01:51:57;5.42;;;2.83;;
24086;SDS011;22893;50.572;7.234;2022-09-25T01:54:31;5.65;;;3.05;;
24086;SDS011;22893;50.572;7.234;2022-09-25T01:57:07;4.92;;;2.50;;
24086;SDS011;22893;50.572;7.234;2022-09-25T01:59:52;4.78;;;2.77;;
24086;SDS011;22893;50.572;7.234;2022-09-25T02:02:20;5.28;;;3.17;;
24086;SDS011;22893;50.572;7.234;2022-09-25T02:04:57;5.37;;;2.92;;
24086;SDS011;22893;50.572;7.234;2022-09-25T02:07:28;6.90;;;2.90;;
24086;SDS011;22893;50.572;7.234;2022-09-25T02:10:07;4.67;;;2.80;;
24086;SDS011;22893;50.572;7.234;2022-09-25T02:12:49;6.62;;;2.95;;
24086;SDS011;22893;50.572;7.234;2022-09-25T02:15:20;6.05;;;3.47;;
24086;SDS011;22893;50.572;7.234;2022-09-25T02:17:54;4.30;;;2.90;;
24086;SDS011;22893;50.572;7.234;2022-09-25T02:20:50;4.85;;;2.50;;
24086;SDS011;22893;50.572;7.234;2022-09-25T02:23:22;4.55;;;2.65;;
24086;SDS011;22893;50.572;7.234;2022-09-25T02:25:54;10.88;;;5.35;;
24086;SDS011;22893;50.572;7.234;2022-09-25T02:28:19;7.83;;;3.27;;
24086;SDS011;22893;50.572;7.234;2022-09-25T02:30:48;6.67;;;3.40;;
24086;SDS011;22893;50.572;7.234;2022-09-25T02:33:21;4.95;;;2.75;;
24086;SDS011;22893;50.572;7.234;2022-09-25T02:35:49;6.10;;;2.80;;
24086;SDS011;22893;50.572;7.234;2022-09-25T02:38:17;5.10;;;3.27;;
24086;SDS011;22893;50.572;7.234;2022-09-25T02:43:54;4.87;;;2.50;;
24086;SDS011;22893;50.572;7.234;2022-09-25T02:45:58;5.53;;;3.02;;
24086;SDS011;22893;50.572;7.234;2022-09-25T02:48:42;4.95;;;3.08;;
24086;SDS011;22893;50.572;7.234;2022-09-25T02:54:03;4.67;;;2.70;;
24086;SDS011;22893;50.572;7.234;2022-09-25T02:56:46;3.47;;;2.42;;
24086;SDS011;22893;50.572;7.234;2022-09-25T02:59:24;4.97;;;2.55;;
24086;SDS011;22893;50.572;7.234;2022-09-25T03:01:56;3.85;;;2.33;;
24086;SDS011;22893;50.572;7.234;2022-09-25T03:04:25;3.87;;;2.22;;
24086;SDS011;22893;50.572;7.234;2022-09-25T03:06:54;3.75;;;2.40;;
24086;SDS011;22893;50.572;7.234;2022-09-25T03:09:22;4.90;;;2.65;;
24086;SDS011;22893;50.572;7.234;2022-09-25T03:11:52;4.17;;;2.40;;
24086;SDS011;22893;50.572;7.234;2022-09-25T03:14:21;5.92;;;2.92;;
24086;SDS011;22893;50.572;7.234;2022-09-25T03:16:53;3.80;;;2.50;;
24086;SDS011;22893;50.572;7.234;2022-09-25T03:19:24;3.98;;;2.37;;
24086;SDS011;22893;50.572;7.234;2022-09-25T03:21:53;5.15;;;2.55;;
24086;SDS011;22893;50.572;7.234;2022-09-25T03:24:20;4.30;;;2.25;;
24086;SDS011;22893;50.572;7.234;2022-09-25T03:26:48;4.50;;;2.58;;
24086;SDS011;22893;50.572;7.234;2022-09-25T03:29:16;4.15;;;2.45;;
24086;SDS011;22893;50.572;7.234;2022-09-25T03:31:44;4.55;;;2.70;;
24086;SDS011;22893;50.572;7.234;2022-09-25T03:34:12;4.70;;;2.72;;
24086;SDS011;22893;50.572;7.234;2022-09-25T03:36:41;4.15;;;2.58;;
24086;SDS011;22893;50.572;7.234;2022-09-25T03:39:11;8.88;;;2.60;;
24086;SDS011;22893;50.572;7.234;2022-09-25T03:41:40;4.45;;;2.45;;
24086;SDS011;22893;50.572;7.234;2022-09-25T03:44:08;3.52;;;2.33;;
24086;SDS011;22893;50.572;7.234;2022-09-25T03:46:36;5.25;;;2.72;;
24086;SDS011;22893;50.572;7.234;2022-09-25T03:49:04;4.17;;;2.40;;
24086;SDS011;22893;50.572;7.234;2022-09-25T03:51:32;4.65;;;2.70;;
24086;SDS011;22893;50.572;7.234;2022-09-25T03:54:00;4.45;;;2.65;;
24086;SDS011;22893;50.572;7.234;2022-09-25T03:56:28;3.95;;;1.90;;
24086;SDS011;22893;50.572;7.234;2022-09-25T03:58:57;3.67;;;2.22;;
24086;SDS011;22893;50.572;7.234;2022-09-25T04:01:25;5.70;;;2.33;;
24086;SDS011;22893;50.572;7.234;2022-09-25T04:03:53;3.70;;;2.05;;
24086;SDS011;22893;50.572;7.234;2022-09-25T04:06:22;3.67;;;1.80;;
24086;SDS011;22893;50.572;7.234;2022-09-25T04:08:51;3.80;;;2.60;;
24086;SDS011;22893;50.572;7.234;2022-09-25T04:11:21;4.85;;;2.42;;
24086;SDS011;22893;50.572;7.234;2022-09-25T04:13:49;5.25;;;2.90;;
24086;SDS011;22893;50.572;7.234;2022-09-25T04:16:17;5.35;;;3.02;;
24086;SDS011;22893;50.572;7.234;2022-09-25T04:18:45;2.90;;;2.02;;
24086;SDS011;22893;50.572;7.234;2022-09-25T04:21:13;5.20;;;2.47;;
24086;SDS011;22893;50.572;7.234;2022-09-25T04:23:41;5.40;;;2.45;;
24086;SDS011;22893;50.572;7.234;2022-09-25T04:26:10;4.58;;;2.35;;
24086;SDS011;22893;50.572;7.234;2022-09-25T04:28:38;5.25;;;3.00;;
24086;SDS011;22893;50.572;7.234;2022-09-25T04:31:05;3.67;;;2.20;;
24086;SDS011;22893;50.572;7.234;2022-09-25T04:33:33;4.95;;;2.50;;
24086;SDS011;22893;50.572;7.234;2022-09-25T04:36:13;4.75;;;2.08;;
24086;SDS011;22893;50.572;7.234;2022-09-25T04:38:43;3.60;;;2.17;;
24086;SDS011;22893;50.572;7.234;2022-09-25T04:41:11;4.08;;;2.50;;
24086;SDS011;22893;50.572;7.234;2022-09-25T04:43:41;3.80;;;2.30;;
24086;SDS011;22893;50.572;7.234;2022-09-25T04:46:09;4.45;;;2.40;;
24086;SDS011;22893;50.572;7.234;2022-09-25T04:48:38;4.00;;;2.37;;
24086;SDS011;22893;50.572;7.234;2022-09-25T04:51:07;3.25;;;2.35;;
24086;SDS011;22893;50.572;7.234;2022-09-25T04:53:35;3.70;;;1.87;;
24086;SDS011;22893;50.572;7.234;2022-09-25T04:56:05;4.45;;;2.33;;
24086;SDS011;22893;50.572;7.234;2022-09-25T04:58:34;2.98;;;2.02;;
24086;SDS011;22893;50.572;7.234;2022-09-25T05:01:06;4.10;;;2.25;;
24086;SDS011;22893;50.572;7.234;2022-09-25T05:03:35;4.85;;;2.35;;
24086;SDS011;22893;50.572;7.234;2022-09-25T05:06:03;4.85;;;2.08;;
24086;SDS011;22893;50.572;7.234;2022-09-25T05:08:30;4.03;;;2.10;;
24086;SDS011;22893;50.572;7.234;2022-09-25T05:10:58;4.00;;;2.58;;
24086;SDS011;22893;50.572;7.234;2022-09-25T05:13:25;3.30;;;2.20;;
24086;SDS011;22893;50.572;7.234;2022-09-25T05:15:53;2.77;;;1.60;;
24086;SDS011;22893;50.572;7.234;2022-09-25T05:18:21;3.70;;;2.17;;
24086;SDS011;22893;50.572;7.234;2022-09-25T05:20:50;4.42;;;2.00;;
24086;SDS011;22893;50.572;7.234;2022-09-25T05:23:21;4.17;;;2.12;;
24086;SDS011;22893;50.572;7.234;2022-09-25T05:25:56;4.25;;;2.02;;
24086;SDS011;22893;50.572;7.234;2022-09-25T05:28:21;4.45;;;2.30;;
24086;SDS011;22893;50.572;7.234;2022-09-25T05:30:49;4.70;;;2.15;;
24086;SDS011;22893;50.572;7.234;2022-09-25T05:33:17;3.72;;;2.05;;
24086;SDS011;22893;50.572;7.234;2022-09-25T05:35:45;4.65;;;2.40;;
24086;SDS011;22893;50.572;7.234;2022-09-25T05:38:13;3.33;;;1.92;;
24086;SDS011;22893;50.572;7.234;2022-09-25T05:40:41;3.95;;;2.50;;
24086;SDS011;22893;50.572;7.234;2022-09-25T05:43:08;3.50;;;1.98;;
24086;SDS011;22893;50.572;7.234;2022-09-25T05:45:37;4.35;;;1.77;;
24086;SDS011;22893;50.572;7.234;2022-09-25T05:48:05;2.95;;;1.67;;
24086;SDS011;22893;50.572;7.234;2022-09-25T05:50:34;3.25;;;1.92;;
24086;SDS011;22893;50.572;7.234;2022-09-25T05:53:03;4.55;;;2.35;;
24086;SDS011;22893;50.572;7.234;2022-09-25T05:55:31;3.35;;;1.72;;
24086;SDS011;22893;50.572;7.234;2022-09-25T05:58:03;2.70;;;1.98;;
24086;SDS011;22893;50.572;7.234;2022-09-25T06:00:28;3.85;;;2.12;;
24086;SDS011;22893;50.572;7.234;2022-09-25T06:03:00;2.95;;;1.87;;
24086;SDS011;22893;50.572;7.234;2022-09-25T06:05:28;3.80;;;1.87;;
24086;SDS011;22893;50.572;7.234;2022-09-25T06:07:55;3.77;;;1.87;;
24086;SDS011;22893;50.572;7.234;2022-09-25T06:10:23;4.20;;;2.20;;
24086;SDS011;22893;50.572;7.234;2022-09-25T06:12:54;3.15;;;1.87;;
24086;SDS011;22893;50.572;7.234;2022-09-25T06:15:24;3.10;;;1.98;;
24086;SDS011;22893;50.572;7.234;2022-09-25T06:17:53;2.87;;;1.80;;
24086;SDS011;22893;50.572;7.234;2022-09-25T06:20:21;4.10;;;1.98;;
24086;SDS011;22893;50.572;7.234;2022-09-25T06:22:53;4.00;;;1.90;;
24086;SDS011;22893;50.572;7.234;2022-09-25T06:25:21;2.47;;;1.50;;
24086;SDS011;22893;50.572;7.234;2022-09-25T06:27:52;2.72;;;1.90;;
24086;SDS011;22893;50.572;7.234;2022-09-25T06:30:21;3.77;;;2.20;;
24086;SDS011;22893;50.572;7.234;2022-09-25T06:33:00;3.42;;;2.05;;
24086;SDS011;22893;50.572;7.234;2022-09-25T06:35:29;3.12;;;1.75;;
24086;SDS011;22893;50.572;7.234;2022-09-25T06:37:59;3.45;;;2.35;;
24086;SDS011;22893;50.572;7.234;2022-09-25T06:40:29;2.58;;;1.70;;
24086;SDS011;22893;50.572;7.234;2022-09-25T06:42:57;2.33;;;1.62;;
24086;SDS011;22893;50.572;7.234;2022-09-25T06:45:26;3.00;;;1.60;;
24086;SDS011;22893;50.572;7.234;2022-09-25T06:48:01;2.80;;;1.70;;
24086;SDS011;22893;50.572;7.234;2022-09-25T06:50:34;3.55;;;1.95;;
24086;SDS011;22893;50.572;7.234;2022-09-25T06:53:00;3.40;;;1.80;;
24086;SDS011;22893;50.572;7.234;2022-09-25T06:55:28;3.50;;;1.40;;
24086;SDS011;22893;50.572;7.234;2022-09-25T06:58:01;4.15;;;1.85;;
24086;SDS011;22893;50.572;7.234;2022-09-25T07:00:30;4.90;;;2.00;;
24086;SDS011;22893;50.572;7.234;2022-09-25T07:02:58;2.75;;;1.60;;
24086;SDS011;22893;50.572;7.234;2022-09-25T07:05:44;3.55;;;2.10;;
24086;SDS011;22893;50.572;7.234;2022-09-25T07:08:13;3.35;;;1.80;;
24086;SDS011;22893;50.572;7.234;2022-09-25T07:10:46;3.33;;;1.80;;
24086;SDS011;22893;50.572;7.234;2022-09-25T07:13:15;3.35;;;1.98;;
24086;SDS011;22893;50.572;7.234;2022-09-25T07:15:56;2.67;;;1.52;;
24086;SDS011;22893;50.572;7.234;2022-09-25T07:18:21;4.58;;;2.20;;
24086;SDS011;22893;50.572;7.234;2022-09-25T07:20:49;5.05;;;2.05;;
24086;SDS011;22893;50.572;7.234;2022-09-25T07:23:18;3.25;;;1.70;;
24086;SDS011;22893;50.572;7.234;2022-09-25T07:25:47;5.30;;;2.15;;
24086;SDS011;22893;50.572;7.234;2022-09-25T07:28:15;3.60;;;2.00;;
24086;SDS011;22893;50.572;7.234;2022-09-25T07:30:44;3.62;;;2.05;;
24086;SDS011;22893;50.572;7.234;2022-09-25T07:33:14;4.17;;;2.12;;
24086;SDS011;22893;50.572;7.234;2022-09-25T07:35:42;2.72;;;1.75;;
24086;SDS011;22893;50.572;7.234;2022-09-25T07:38:09;3.45;;;2.35;;
24086;SDS011;22893;50.572;7.234;2022-09-25T07:40:37;3.20;;;1.95;;
24086;SDS011;22893;50.572;7.234;2022-09-25T07:43:04;4.05;;;2.12;;
24086;SDS011;22893;50.572;7.234;2022-09-25T07:45:32;2.83;;;1.90;;
24086;SDS011;22893;50.572;7.234;2022-09-25T07:48:01;4.83;;;2.52;;
24086;SDS011;22893;50.572;7.234;2022-09-25T07:50:30;4.65;;;2.20;;
24086;SDS011;22893;50.572;7.234;2022-09-25T07:52:58;4.22;;;1.92;;
24086;SDS011;22893;50.572;7.234;2022-09-25T07:55:26;4.25;;;2.15;;
24086;SDS011;22893;50.572;7.234;2022-09-25T07:57:57;5.03;;;2.00;;
24086;SDS011;22893;50.572;7.234;2022-09-25T08:00:24;3.25;;;1.80;;
24086;SDS011;22893;50.572;7.234;2022-09-25T08:02:59;9.15;;;2.47;;
24086;SDS011;22893;50.572;7.234;2022-09-25T08:05:25;4.20;;;1.90;;
24086;SDS011;22893;50.572;7.234;2022-09-25T08:08:12;5.62;;;2.20;;
24086;SDS011;22893;50.572;7.234;2022-09-25T08:10:40;6.28;;;1.87;;
24086;SDS011;22893;50.572;7.234;2022-09-25T08:13:07;2.50;;;1.50;;
24086;SDS011;22893;50.572;7.234;2022-09-25T08:15:35;3.83;;;2.17;;
24086;SDS011;22893;50.572;7.234;2022-09-25T08:18:02;4.65;;;2.22;;
24086;SDS011;22893;50.572;7.234;2022-09-25T08:20:30;5.20;;;1.80;;
24086;SDS011;22893;50.572;7.234;2022-09-25T08:22:57;4.33;;;1.95;;
24086;SDS011;22893;50.572;7.234;2022-09-25T08:25:25;5.62;;;2.10;;
24086;SDS011;22893;50.572;7.234;2022-09-25T08:27:52;4.25;;;1.92;;
24086;SDS011;22893;50.572;7.234;2022-09-25T08:30:20;3.55;;;1.75;;
24086;SDS011;22893;50.572;7.234;2022-09-25T08:32:47;5.67;;;1.80;;
24086;SDS011;22893;50.572;7.234;2022-09-25T08:35:17;4.00;;;2.02;;
24086;SDS011;22893;50.572;7.234;2022-09-25T08:37:44;3.95;;;2.12;;
24086;SDS011;22893;50.572;7.234;2022-09-25T08:40:21;5.05;;;1.80;;
24086;SDS011;22893;50.572;7.234;2022-09-25T08:42:52;5.03;;;1.95;;
24086;SDS011;22893;50.572;7.234;2022-09-25T08:45:25;5.60;;;2.02;;
24086;SDS011;22893;50.572;7.234;2022-09-25T08:48:15;4.10;;;2.35;;
24086;SDS011;22893;50.572;7.234;2022-09-25T08:51:00;3.45;;;1.90;;
24086;SDS011;22893;50.572;7.234;2022-09-25T08:53:31;5.25;;;1.85;;
24086;SDS011;22893;50.572;7.234;2022-09-25T08:56:01;6.60;;;2.42;;
24086;SDS011;22893;50.572;7.234;2022-09-25T08:58:45;4.83;;;1.95;;
24086;SDS011;22893;50.572;7.234;2022-09-25T09:01:13;7.40;;;1.90;;
24086;SDS011;22893;50.572;7.234;2022-09-25T09:03:45;5.45;;;1.80;;
24086;SDS011;22893;50.572;7.234;2022-09-25T09:06:14;3.75;;;1.67;;
24086;SDS011;22893;50.572;7.234;2022-09-25T09:08:45;7.08;;;2.10;;
24086;SDS011;22893;50.572;7.234;2022-09-25T09:11:25;3.17;;;1.60;;
24086;SDS011;22893;50.572;7.234;2022-09-25T09:13:58;4.55;;;2.00;;
24086;SDS011;22893;50.572;7.234;2022-09-25T09:16:34;8.40;;;2.27;;
24086;SDS011;22893;50.572;7.234;2022-09-25T09:19:09;4.62;;;1.95;;
24086;SDS011;22893;50.572;7.234;2022-09-25T09:21:44;6.33;;;1.90;;
24086;SDS011;22893;50.572;7.234;2022-09-25T09:24:26;12.85;;;2.00;;
24086;SDS011;22893;50.572;7.234;2022-09-25T09:35:01;5.40;;;1.98;;
24086;SDS011;22893;50.572;7.234;2022-09-25T09:37:54;5.53;;;1.80;;
24086;SDS011;22893;50.572;7.234;2022-09-25T09:43:01;6.05;;;2.15;;
24086;SDS011;22893;50.572;7.234;2022-09-25T09:48:23;8.33;;;1.75;;
24086;SDS011;22893;50.572;7.234;2022-09-25T09:50:55;3.52;;;1.40;;
24086;SDS011;22893;50.572;7.234;2022-09-25T09:53:40;6.87;;;1.82;;
24086;SDS011;22893;50.572;7.234;2022-09-25T09:56:28;7.37;;;1.90;;
24086;SDS011;22893;50.572;7.234;2022-09-25T09:58:58;5.28;;;1.98;;
24086;SDS011;22893;50.572;7.234;2022-09-25T10:01:53;3.58;;;1.80;;
24086;SDS011;22893;50.572;7.234;2022-09-25T10:04:32;4.05;;;1.80;;
24086;SDS011;22893;50.572;7.234;2022-09-25T10:07:00;5.83;;;1.85;;
24086;SDS011;22893;50.572;7.234;2022-09-25T10:09:28;11.88;;;2.33;;
24086;SDS011;22893;50.572;7.234;2022-09-25T10:12:42;8.20;;;1.45;;
24086;SDS011;22893;50.572;7.234;2022-09-25T10:14:44;2.75;;;1.52;;
24086;SDS011;22893;50.572;7.234;2022-09-25T10:17:13;7.87;;;1.80;;
24086;SDS011;22893;50.572;7.234;2022-09-25T10:19:50;12.05;;;2.15;;
24086;SDS011;22893;50.572;7.234;2022-09-25T10:22:19;8.20;;;1.90;;
24086;SDS011;22893;50.572;7.234;2022-09-25T10:24:54;5.85;;;1.80;;
24086;SDS011;22893;50.572;7.234;2022-09-25T10:27:26;4.45;;;1.50;;
24086;SDS011;22893;50.572;7.234;2022-09-25T10:30:03;7.08;;;2.55;;
24086;SDS011;22893;50.572;7.234;2022-09-25T10:32:32;6.80;;;2.15;;
24086;SDS011;22893;50.572;7.234;2022-09-25T10:35:02;5.60;;;1.62;;
24086;SDS011;22893;50.572;7.234;2022-09-25T10:37:30;2.90;;;1.70;;
24086;SDS011;22893;50.572;7.234;2022-09-25T10:40:03;9.03;;;3.17;;
24086;SDS011;22893;50.572;7.234;2022-09-25T10:42:36;6.83;;;1.77;;
24086;SDS011;22893;50.572;7.234;2022-09-25T10:47:54;7.40;;;1.60;;
24086;SDS011;22893;50.572;7.234;2022-09-25T10:50:40;3.98;;;1.95;;
24086;SDS011;22893;50.572;7.234;2022-09-25T10:53:22;7.55;;;2.33;;
24086;SDS011;22893;50.572;7.234;2022-09-25T10:56:09;3.45;;;1.62;;
24086;SDS011;22893;50.572;7.234;2022-09-25T10:58:46;5.10;;;1.70;;
24086;SDS011;22893;50.572;7.234;2022-09-25T11:01:09;7.83;;;1.87;;
24086;SDS011;22893;50.572;7.234;2022-09-25T11:03:48;9.68;;;1.98;;
24086;SDS011;22893;50.572;7.234;2022-09-25T11:06:24;3.85;;;1.95;;
24086;SDS011;22893;50.572;7.234;2022-09-25T11:09:07;12.15;;;2.55;;
24086;SDS011;22893;50.572;7.234;2022-09-25T11:11:39;7.12;;;2.40;;
24086;SDS011;22893;50.572;7.234;2022-09-25T11:16:57;6.17;;;2.25;;
24086;SDS011;22893;50.572;7.234;2022-09-25T11:19:28;5.60;;;2.02;;
24086;SDS011;22893;50.572;7.234;2022-09-25T11:24:43;5.62;;;1.77;;
24086;SDS011;22893;50.572;7.234;2022-09-25T11:29:46;6.50;;;2.15;;
24086;SDS011;22893;50.572;7.234;2022-09-25T11:32:35;6.45;;;1.72;;
24086;SDS011;22893;50.572;7.234;2022-09-25T11:37:56;6.03;;;2.08;;
24086;SDS011;22893;50.572;7.234;2022-09-25T11:40:38;8.48;;;1.98;;
24086;SDS011;22893;50.572;7.234;2022-09-25T11:46:44;11.22;;;1.67;;
24086;SDS011;22893;50.572;7.234;2022-09-25T11:49:34;6.17;;;2.45;;
24086;SDS011;22893;50.572;7.234;2022-09-25T11:57:28;5.05;;;1.70;;
24086;SDS011;22893;50.572;7.234;2022-09-25T12:13:37;8.08;;;2.05;;
24086;SDS011;22893;50.572;7.234;2022-09-25T12:18:52;5.08;;;1.65;;
24086;SDS011;22893;50.572;7.234;2022-09-25T12:21:25;8.35;;;2.33;;
24086;SDS011;22893;50.572;7.234;2022-09-25T12:24:01;4.62;;;2.17;;
24086;SDS011;22893;50.572;7.234;2022-09-25T12:26:29;6.97;;;2.77;;
24086;SDS011;22893;50.572;7.234;2022-09-25T12:29:55;3.60;;;1.75;;
24086;SDS011;22893;50.572;7.234;2022-09-25T12:35:02;6.42;;;1.95;;
24086;SDS011;22893;50.572;7.234;2022-09-25T12:37:48;6.87;;;1.85;;
24086;SDS011;22893;50.572;7.234;2022-09-25T12:43:02;3.62;;;1.12;;
24086;SDS011;22893;50.572;7.234;2022-09-25T12:45:47;10.53;;;2.65;;
24086;SDS011;22893;50.572;7.234;2022-09-25T12:48:33;5.33;;;1.87;;
24086;SDS011;22893;50.572;7.234;2022-09-25T12:51:46;4.35;;;1.90;;
24086;SDS011;22893;50.572;7.234;2022-09-25T12:53:48;8.35;;;1.90;;
24086;SDS011;22893;50.572;7.234;2022-09-25T12:56:35;6.33;;;1.85;;
24086;SDS011;22893;50.572;7.234;2022-09-25T12:59:15;11.43;;;2.25;;
24086;SDS011;22893;50.572;7.234;2022-09-25T13:07:25;5.25;;;1.37;;
24086;SDS011;22893;50.572;7.234;2022-09-25T13:09:50;5.72;;;1.95;;
24086;SDS011;22893;50.572;7.234;2022-09-25T13:12:20;7.20;;;2.40;;
24086;SDS011;22893;50.572;7.234;2022-09-25T13:15:09;4.70;;;1.67;;
24086;SDS011;22893;50.572;7.234;2022-09-25T13:17:40;5.97;;;2.22;;
24086;SDS011;22893;50.572;7.234;2022-09-25T13:23:04;4.80;;;1.57;;
24086;SDS011;22893;50.572;7.234;2022-09-25T13:25:42;4.05;;;1.82;;
24086;SDS011;22893;50.572;7.234;2022-09-25T13:28:24;5.55;;;1.47;;
24086;SDS011;22893;50.572;7.234;2022-09-25T13:31:01;4.08;;;1.82;;
24086;SDS011;22893;50.572;7.234;2022-09-25T13:33:47;3.95;;;1.27;;
24086;SDS011;22893;50.572;7.234;2022-09-25T13:38:57;3.15;;;1.15;;
24086;SDS011;22893;50.572;7.234;2022-09-25T13:41:48;3.65;;;1.22;;
24086;SDS011;22893;50.572;7.234;2022-09-25T13:49:54;5.10;;;1.65;;
24086;SDS011;22893;50.572;7.234;2022-09-25T13:52:27;4.12;;;2.12;;
24086;SDS011;22893;50.572;7.234;2022-09-25T14:00:24;2.22;;;1.20;;
24086;SDS011;22893;50.572;7.234;2022-09-25T14:03:28;4.53;;;1.17;;
24086;SDS011;22893;50.572;7.234;2022-09-25T14:06:24;5.12;;;1.55;;
24086;SDS011;22893;50.572;7.234;2022-09-25T14:08:55;5.95;;;1.45;;
24086;SDS011;22893;50.572;7.234;2022-09-25T14:11:33;4.08;;;1.37;;
24086;SDS011;22893;50.572;7.234;2022-09-25T14:14:14;5.17;;;1.70;;
24086;SDS011;22893;50.572;7.234;2022-09-25T14:16:45;5.40;;;1.27;;
24086;SDS011;22893;50.572;7.234;2022-09-25T14:19:29;5.70;;;1.35;;
24086;SDS011;22893;50.572;7.234;2022-09-25T14:21:58;6.03;;;1.75;;
24086;SDS011;22893;50.572;7.234;2022-09-25T14:24:28;4.80;;;1.12;;
24086;SDS011;22893;50.572;7.234;2022-09-25T14:27:02;4.47;;;0.88;;
24086;SDS011;22893;50.572;7.234;2022-09-25T14:29:37;2.70;;;1.00;;
24086;SDS011;22893;50.572;7.234;2022-09-25T14:37:46;4.78;;;1.10;;
24086;SDS011;22893;50.572;7.234;2022-09-25T14:40:20;4.92;;;1.00;;
24086;SDS011;22893;50.572;7.234;2022-09-25T14:43:14;2.52;;;1.55;;
24086;SDS011;22893;50.572;7.234;2022-09-25T14:49:12;3.92;;;1.50;;
24086;SDS011;22893;50.572;7.234;2022-09-25T14:51:20;7.03;;;1.30;;
24086;SDS011;22893;50.572;7.234;2022-09-25T14:53:51;3.05;;;1.10;;
24086;SDS011;22893;50.572;7.234;2022-09-25T14:56:23;2.20;;;1.10;;
24086;SDS011;22893;50.572;7.234;2022-09-25T14:58:54;4.00;;;1.17;;
24086;SDS011;22893;50.572;7.234;2022-09-25T15:01:26;2.25;;;0.75;;
24086;SDS011;22893;50.572;7.234;2022-09-25T15:03:57;7.25;;;1.15;;
24086;SDS011;22893;50.572;7.234;2022-09-25T15:06:29;3.25;;;1.02;;
24086;SDS011;22893;50.572;7.234;2022-09-25T15:08:59;2.15;;;1.32;;
24086;SDS011;22893;50.572;7.234;2022-09-25T15:11:37;4.00;;;1.00;;
24086;SDS011;22893;50.572;7.234;2022-09-25T15:14:10;7.42;;;1.17;;
24086;SDS011;22893;50.572;7.234;2022-09-25T15:16:39;5.00;;;0.90;;
24086;SDS011;22893;50.572;7.234;2022-09-25T15:19:36;6.35;;;1.25;;
24086;SDS011;22893;50.572;7.234;2022-09-25T15:22:09;7.22;;;1.40;;
24086;SDS011;22893;50.572;7.234;2022-09-25T15:24:39;4.10;;;1.10;;
24086;SDS011;22893;50.572;7.234;2022-09-25T15:27:10;2.58;;;1.40;;
24086;SDS011;22893;50.572;7.234;2022-09-25T15:29:42;5.15;;;1.20;;
24086;SDS011;22893;50.572;7.234;2022-09-25T15:32:20;2.65;;;1.07;;
24086;SDS011;22893;50.572;7.234;2022-09-25T15:37:42;1.77;;;1.05;;
24086;SDS011;22893;50.572;7.234;2022-09-25T15:40:16;2.65;;;1.32;;
24086;SDS011;22893;50.572;7.234;2022-09-25T15:42:45;4.33;;;1.17;;
24086;SDS011;22893;50.572;7.234;2022-09-25T15:48:13;2.70;;;1.20;;
24086;SDS011;22893;50.572;7.234;2022-09-25T15:50:44;2.83;;;0.70;;
24086;SDS011;22893;50.572;7.234;2022-09-25T15:53:16;3.98;;;1.50;;
24086;SDS011;22893;50.572;7.234;2022-09-25T15:55:49;6.17;;;1.75;;
24086;SDS011;22893;50.572;7.234;2022-09-25T15:58:18;3.77;;;1.00;;
24086;SDS011;22893;50.572;7.234;2022-09-25T16:01:00;5.30;;;1.32;;
24086;SDS011;22893;50.572;7.234;2022-09-25T16:03:48;5.25;;;1.77;;
24086;SDS011;22893;50.572;7.234;2022-09-25T16:06:42;1.90;;;1.02;;
24086;SDS011;22893;50.572;7.234;2022-09-25T16:09:21;3.12;;;1.10;;
24086;SDS011;22893;50.572;7.234;2022-09-25T16:11:50;3.65;;;1.30;;
24086;SDS011;22893;50.572;7.234;2022-09-25T16:14:27;3.45;;;1.10;;
24086;SDS011;22893;50.572;7.234;2022-09-25T16:16:49;5.00;;;1.10;;
24086;SDS011;22893;50.572;7.234;2022-09-25T16:19:39;7.05;;;1.32;;
24086;SDS011;22893;50.572;7.234;2022-09-25T16:21:54;4.30;;;1.47;;
24086;SDS011;22893;50.572;7.234;2022-09-25T16:24:25;4.78;;;1.52;;
24086;SDS011;22893;50.572;7.234;2022-09-25T16:26:55;6.30;;;1.60;;
24086;SDS011;22893;50.572;7.234;2022-09-25T16:29:32;8.65;;;1.42;;
24086;SDS011;22893;50.572;7.234;2022-09-25T16:32:02;6.12;;;1.17;;
24086;SDS011;22893;50.572;7.234;2022-09-25T16:34:34;3.72;;;1.07;;
24086;SDS011;22893;50.572;7.234;2022-09-25T16:37:03;5.25;;;1.00;;
24086;SDS011;22893;50.572;7.234;2022-09-25T16:39:34;6.60;;;1.50;;
24086;SDS011;22893;50.572;7.234;2022-09-25T16:42:49;4.35;;;1.32;;
24086;SDS011;22893;50.572;7.234;2022-09-25T16:44:47;4.35;;;1.55;;
24086;SDS011;22893;50.572;7.234;2022-09-25T16:47:19;3.27;;;1.32;;
24086;SDS011;22893;50.572;7.234;2022-09-25T16:49:45;4.40;;;1.32;;
24086;SDS011;22893;50.572;7.234;2022-09-25T16:52:21;3.42;;;1.70;;
24086;SDS011;22893;50.572;7.234;2022-09-25T16:54:50;3.40;;;1.40;;
24086;SDS011;22893;50.572;7.234;2022-09-25T16:57:20;5.03;;;1.67;;
24086;SDS011;22893;50.572;7.234;2022-09-25T16:59:50;2.20;;;1.60;;
24086;SDS011;22893;50.572;7.234;2022-09-25T17:02:26;3.95;;;1.57;;
24086;SDS011;22893;50.572;7.234;2022-09-25T17:04:52;3.15;;;1.65;;
24086;SDS011;22893;50.572;7.234;2022-09-25T17:07:20;3.95;;;1.72;;
24086;SDS011;22893;50.572;7.234;2022-09-25T17:09:47;3.45;;;1.20;;
24086;SDS011;22893;50.572;7.234;2022-09-25T17:12:18;3.15;;;1.50;;
24086;SDS011;22893;50.572;7.234;2022-09-25T17:14:48;6.22;;;2.12;;
24086;SDS011;22893;50.572;7.234;2022-09-25T17:17:17;2.75;;;1.50;;